Time;durP1;ratioP1;P1;durP2;ratioP2;P2;SDS_P1;SDS_P2;PMS_P1;PMS_P2;Temp;Humidity;BMP_temperature;BMP_pressure;BME280_temperature;BME280_humidity;BME280_pressure;Samples;Min_cycle;Max_cycle;Signal;HPM_P1;HPM_P2
2022/03/21 00:02:21;;;;;;;57.57;34.83;;;4.30;79.40;;;;;;5034697;28;20534;-77
2022/03/21 00:04:47;;;;;;;60.40;36.60;;;4.30;79.40;;;;;;5035068;28;20030;-77
2022/03/21 00:07:13;;;;;;;56.37;36.83;;;4.20;79.50;;;;;;5034509;28;20555;-77
2022/03/21 00:09:39;;;;;;;53.70;35.67;;;4.10;79.50;;;;;;5034327;28;20037;-77
2022/03/21 00:12:05;;;;;;;58.03;35.93;;;4.10;79.60;;;;;;5016613;28;20029;-75
2022/03/21 00:14:31;;;;;;;57.03;35.40;;;4.10;79.70;;;;;;5032610;28;20040;-75
2022/03/21 00:16:58;;;;;;;58.70;35.10;;;4.00;80.00;;;;;;5053150;28;20123;-75
2022/03/21 00:19:24;;;;;;;55.53;35.63;;;4.00;80.20;;;;;;5054306;28;20052;-75
2022/03/21 00:21:49;;;;;;;59.30;36.37;;;4.00;80.20;;;;;;5052884;28;20473;-75
2022/03/21 00:24:15;;;;;;;57.30;35.90;;;4.00;80.20;;;;;;5054218;28;20151;-75
2022/03/21 00:26:40;;;;;;;58.97;35.43;;;4.00;80.40;;;;;;5033393;28;20039;-75
2022/03/21 00:29:08;;;;;;;56.33;35.53;;;3.90;80.50;;;;;;5033110;28;20060;-75
2022/03/21 00:31:35;;;;;;;59.43;35.37;;;3.90;80.70;;;;;;5016772;28;20057;-75
2022/03/21 00:34:01;;;;;;;58.70;37.03;;;3.80;80.80;;;;;;5034006;28;20535;-75
2022/03/21 00:36:27;;;;;;;57.87;35.00;;;3.80;81.00;;;;;;5034091;28;20033;-74
2022/03/21 00:38:53;;;;;;;53.43;34.33;;;3.70;81.30;;;;;;5033435;28;20032;-75
2022/03/21 00:41:21;;;;;;;58.70;35.27;;;3.70;81.40;;;;;;5032914;28;20025;-75
2022/03/21 00:43:47;;;;;;;60.00;35.53;;;3.70;81.60;;;;;;5016850;28;20117;-74
2022/03/21 00:46:13;;;;;;;57.10;36.47;;;3.70;81.70;;;;;;5032866;28;20450;-75
2022/03/21 00:48:38;;;;;;;54.30;35.13;;;3.60;81.80;;;;;;5034066;28;20033;-74
2022/03/21 00:51:04;;;;;;;57.30;35.47;;;3.60;82.10;;;;;;5034173;28;20109;-74
2022/03/21 00:53:30;;;;;;;56.43;35.60;;;3.60;82.50;;;;;;5053538;28;20094;-75
2022/03/21 00:55:56;;;;;;;58.60;35.30;;;3.60;82.50;;;;;;5053474;28;20037;-75
2022/03/21 00:58:22;;;;;;;54.67;34.17;;;3.70;82.70;;;;;;5052585;28;20047;-75
2022/03/21 01:00:48;;;;;;;58.00;35.03;;;3.60;82.70;;;;;;5052361;28;20489;-75
2022/03/21 01:03:13;;;;;;;58.30;36.83;;;3.60;82.90;;;;;;5053067;28;20025;-75
2022/03/21 01:05:39;;;;;;;57.23;36.23;;;3.60;83.10;;;;;;5053643;28;20056;-75
2022/03/21 01:08:06;;;;;;;57.47;35.17;;;3.60;83.30;;;;;;5034157;28;20514;-75
2022/03/21 01:10:32;;;;;;;60.00;35.77;;;3.60;83.60;;;;;;5032279;28;20082;-76
2022/03/21 01:12:58;;;;;;;55.03;35.10;;;3.60;83.80;;;;;;5016078;28;20454;-77
2022/03/21 01:15:25;;;;;;;56.50;34.93;;;3.70;83.90;;;;;;5033457;28;20025;-77
2022/03/21 01:17:52;;;;;;;57.23;34.47;;;3.60;84.00;;;;;;5032123;28;20394;-77
2022/03/21 01:20:20;;;;;;;60.03;36.70;;;3.60;84.20;;;;;;5032110;28;20079;-77
2022/03/21 01:22:46;;;;;;;57.30;35.23;;;3.60;84.20;;;;;;5033380;28;20018;-77
2022/03/21 01:25:12;;;;;;;54.53;33.53;;;3.50;84.40;;;;;;5033248;28;20091;-76
2022/03/21 01:27:39;;;;;;;59.30;35.87;;;3.50;84.40;;;;;;5033399;28;20060;-77
2022/03/21 01:30:10;;;;;;;59.17;36.20;;;3.50;84.50;;;;;;5032255;28;20026;-77
2022/03/21 01:32:36;;;;;;;59.03;35.50;;;3.40;84.60;;;;;;5037483;28;20029;-77
2022/03/21 01:35:03;;;;;;;54.40;34.97;;;3.40;84.90;;;;;;5051733;28;20025;-77
2022/03/21 01:37:29;;;;;;;55.03;35.10;;;3.40;85.00;;;;;;5033349;28;20389;-77
2022/03/21 01:39:54;;;;;;;58.10;35.83;;;3.30;85.10;;;;;;5033386;28;20025;-77
2022/03/21 01:42:20;;;;;;;53.07;35.97;;;3.30;85.30;;;;;;5052085;28;20431;-77
2022/03/21 01:44:51;;;;;;;54.83;35.13;;;3.30;85.50;;;;;;5053101;28;20060;-77
2022/03/21 01:47:17;;;;;;;54.33;35.10;;;3.30;85.70;;;;;;5051609;28;20078;-77
2022/03/21 01:49:43;;;;;;;56.63;35.50;;;3.30;85.90;;;;;;5035470;28;20044;-77
2022/03/21 01:52:09;;;;;;;59.90;36.43;;;3.30;86.10;;;;;;5053085;28;20029;-77
2022/03/21 01:57:18;;;;;;;66.90;38.08;;;3.30;86.60;;;;;;5053089;28;20094;-77
2022/03/21 01:59:45;;;;;;;56.40;35.63;;;3.30;86.70;;;;;;5052454;28;20104;-77
2022/03/21 02:02:11;;;;;;;55.93;34.70;;;3.20;86.70;;;;;;5015584;28;20026;-77
2022/03/21 02:04:37;;;;;;;60.67;37.40;;;3.20;87.60;;;;;;5031662;28;20030;-77
2022/03/21 02:07:04;;;;;;;64.73;37.33;;;3.20;87.20;;;;;;5031647;28;20429;-77
2022/03/21 02:09:30;;;;;;;60.03;37.93;;;3.20;87.50;;;;;;5031337;28;20040;-77
2022/03/21 02:11:57;;;;;;;57.93;35.83;;;3.20;87.70;;;;;;5032944;28;20421;-77
2022/03/21 02:14:22;;;;;;;60.40;36.63;;;3.20;87.80;;;;;;5036099;28;20033;-77
2022/03/21 02:16:48;;;;;;;63.77;38.00;;;3.20;88.00;;;;;;5053443;28;20045;-77
2022/03/21 02:19:43;;;;;;;59.87;38.70;;;3.20;88.20;;;;;;5054990;28;20068;-77
2022/03/21 02:22:26;;;;;;;;;;;3.20;88.50;;;;;;5055433;28;20048;-77
2022/03/21 02:25:13;;;;;;;55.63;32.83;;;3.20;88.60;;;;;;5035094;28;19905;-77
2022/03/21 02:27:39;;;;;;;57.27;33.90;;;3.20;88.30;;;;;;5035401;28;20033;-77
2022/03/21 02:30:05;;;;;;;58.53;35.00;;;3.20;88.40;;;;;;5019380;28;20036;-77
2022/03/21 02:32:31;;;;;;;57.27;33.80;;;3.20;88.60;;;;;;5036578;28;20256;-77
2022/03/21 02:34:58;;;;;;;59.03;37.23;;;3.20;88.90;;;;;;5036531;28;20037;-77
2022/03/21 02:37:26;;;;;;;64.77;39.27;;;3.10;89.10;;;;;;5036366;28;20037;-77
2022/03/21 02:39:54;;;;;;;58.67;37.00;;;3.10;89.40;;;;;;5041783;28;20036;-77
2022/03/21 02:42:19;;;;;;;58.47;35.73;;;3.10;89.70;;;;;;5056331;28;20075;-77
2022/03/21 02:44:45;;;;;;;61.67;36.67;;;3.10;90.00;;;;;;5056070;28;20041;-77
2022/03/21 02:47:11;;;;;;;64.40;37.47;;;3.10;90.10;;;;;;5055948;28;20032;-77
2022/03/21 02:49:37;;;;;;;57.20;36.97;;;3.10;90.30;;;;;;5037624;28;20465;-77
2022/03/21 02:52:05;;;;;;;61.20;37.50;;;3.10;90.30;;;;;;5036075;28;20037;-75
2022/03/21 02:54:32;;;;;;;58.60;36.77;;;3.20;90.40;;;;;;5034810;28;20418;-75
2022/03/21 02:56:58;;;;;;;60.77;37.50;;;3.10;90.50;;;;;;5036232;28;20120;-75
2022/03/21 02:59:25;;;;;;;62.17;37.63;;;3.10;90.60;;;;;;5034839;28;20166;-75
2022/03/21 03:01:53;;;;;;;60.97;36.63;;;3.10;90.70;;;;;;5026377;28;20064;-75
2022/03/21 03:04:23;;;;;;;61.70;37.23;;;3.10;90.80;;;;;;5034614;28;20030;-75
2022/03/21 03:06:49;;;;;;;60.07;36.17;;;3.20;90.90;;;;;;5034409;28;20041;-75
2022/03/21 03:09:15;;;;;;;62.53;35.03;;;3.20;91.00;;;;;;5035095;28;20474;-75
2022/03/21 03:11:41;;;;;;;56.83;34.40;;;3.20;91.10;;;;;;5034531;28;20466;-75
2022/03/21 03:14:07;;;;;;;53.03;33.87;;;3.20;91.20;;;;;;5035864;28;20025;-75
2022/03/21 03:16:34;;;;;;;54.67;32.87;;;3.10;91.30;;;;;;5045892;28;20035;-75
2022/03/21 03:18:59;;;;;;;53.43;33.50;;;3.10;91.40;;;;;;5055610;28;20052;-75
2022/03/21 03:21:30;;;;;;;53.47;32.87;;;3.10;91.50;;;;;;5054571;28;20075;-75
2022/03/21 03:23:59;;;;;;;55.53;35.23;;;3.10;91.60;;;;;;5055461;28;20071;-75
2022/03/21 03:26:24;;;;;;;53.87;33.20;;;3.20;91.60;;;;;;5055341;28;20074;-75
2022/03/21 03:28:50;;;;;;;55.73;34.07;;;3.10;91.70;;;;;;5037417;28;20040;-74
2022/03/21 03:31:17;;;;;;;55.53;33.53;;;3.10;91.80;;;;;;5044993;28;20036;-75
2022/03/21 03:33:45;;;;;;;53.33;31.97;;;3.10;91.90;;;;;;5035185;28;20481;-75
2022/03/21 03:36:11;;;;;;;55.53;32.80;;;3.10;92.00;;;;;;5033761;28;20025;-74
2022/03/21 03:38:37;;;;;;;57.00;33.33;;;3.10;92.10;;;;;;5035221;28;20021;-75
2022/03/21 03:41:03;;;;;;;48.03;30.50;;;3.10;92.10;;;;;;5017433;28;20017;-75
2022/03/21 03:43:29;;;;;;;51.30;32.33;;;3.20;92.20;;;;;;5033739;28;20548;-75
2022/03/21 03:45:57;;;;;;;49.00;31.60;;;3.20;92.20;;;;;;5042915;28;20017;-75
2022/03/21 03:48:23;;;;;;;55.40;34.07;;;3.20;92.30;;;;;;5054000;28;20040;-75
2022/03/21 03:50:48;;;;;;;55.17;32.03;;;3.10;92.30;;;;;;5055295;28;20017;-75
2022/03/21 03:53:15;;;;;;;51.90;32.80;;;3.10;92.30;;;;;;5055157;28;20450;-75
2022/03/21 03:55:40;;;;;;;53.53;31.37;;;3.00;92.40;;;;;;5037177;28;20070;-75
2022/03/21 03:58:06;;;;;;;54.97;33.60;;;3.00;92.40;;;;;;5053658;28;20033;-75
2022/03/21 04:00:32;;;;;;;54.17;32.33;;;3.10;92.40;;;;;;5043109;28;20029;-75
2022/03/21 04:05:41;;;;;;;57.95;34.08;;;3.00;92.40;;;;;;5035108;28;20164;-75
2022/03/21 04:08:07;;;;;;;53.33;32.73;;;3.00;92.50;;;;;;5034969;28;20076;-75
2022/03/21 04:10:33;;;;;;;51.07;31.87;;;3.00;92.50;;;;;;5033532;28;20026;-75
2022/03/21 04:12:59;;;;;;;54.30;31.17;;;3.00;92.50;;;;;;5034706;28;20025;-75
2022/03/21 04:15:24;;;;;;;50.80;30.50;;;2.90;92.60;;;;;;5035172;28;20025;-75
2022/03/21 04:17:50;;;;;;;54.70;33.70;;;2.90;92.70;;;;;;5034182;28;20037;-75
2022/03/21 04:20:16;;;;;;;56.33;33.70;;;2.90;92.80;;;;;;5034293;28;20055;-75
2022/03/21 04:22:42;;;;;;;55.50;32.77;;;2.80;92.90;;;;;;5035442;28;20132;-75
2022/03/21 04:25:10;;;;;;;55.03;33.03;;;2.90;93.00;;;;;;5032994;28;20036;-75
2022/03/21 04:27:37;;;;;;;52.80;30.73;;;2.90;93.10;;;;;;5032842;28;20036;-74
2022/03/21 04:30:04;;;;;;;53.67;30.83;;;2.80;93.20;;;;;;5034163;28;20072;-75
2022/03/21 04:32:30;;;;;;;50.23;30.60;;;2.80;93.30;;;;;;5034236;28;20079;-74
2022/03/21 04:34:55;;;;;;;52.70;31.70;;;2.80;93.40;;;;;;5034071;28;20033;-75
2022/03/21 04:37:21;;;;;;;53.17;30.50;;;2.80;93.50;;;;;;5032600;28;20063;-75
2022/03/21 04:39:46;;;;;;;45.97;28.83;;;2.80;93.60;;;;;;5050100;28;20033;-75
2022/03/21 04:42:12;;;;;;;53.13;29.87;;;2.80;93.70;;;;;;5052689;28;20033;-76
2022/03/21 04:44:39;;;;;;;51.30;29.07;;;2.90;93.80;;;;;;5054054;28;20441;-76
2022/03/21 04:47:06;;;;;;;51.80;30.37;;;2.90;93.90;;;;;;5052844;28;20048;-76
2022/03/21 04:49:32;;;;;;;48.40;30.00;;;2.90;94.00;;;;;;5052843;28;20029;-76
2022/03/21 04:51:57;;;;;;;51.23;30.73;;;2.90;94.10;;;;;;5054022;28;20037;-76
2022/03/21 04:54:27;;;;;;;52.60;29.40;;;2.90;94.10;;;;;;5052720;28;20033;-77
2022/03/21 04:56:52;;;;;;;48.77;30.50;;;2.90;94.20;;;;;;5053074;28;20116;-77
2022/03/21 04:59:18;;;;;;;48.40;30.57;;;2.90;94.20;;;;;;5053327;28;20071;-77
2022/03/21 05:01:43;;;;;;;47.63;28.60;;;2.90;94.30;;;;;;5053785;28;20039;-77
2022/03/21 05:04:09;;;;;;;48.33;29.40;;;2.90;94.30;;;;;;5035896;28;20029;-77
2022/03/21 05:06:35;;;;;;;48.73;28.07;;;2.90;94.70;;;;;;5052679;28;20371;-77
2022/03/21 05:09:03;;;;;;;48.30;29.23;;;2.80;94.40;;;;;;5035515;28;20143;-75
2022/03/21 05:11:29;;;;;;;49.77;29.10;;;2.80;94.50;;;;;;5052675;28;20071;-76
2022/03/21 05:13:56;;;;;;;48.17;27.67;;;2.80;94.50;;;;;;5053491;28;20021;-77
2022/03/21 05:16:22;;;;;;;50.03;29.63;;;2.80;94.50;;;;;;5053393;28;20029;-77
2022/03/21 05:18:49;;;;;;;50.40;29.10;;;2.80;94.50;;;;;;5053531;28;20066;-77
2022/03/21 05:21:16;;;;;;;48.50;28.37;;;2.80;94.50;;;;;;5053186;28;20025;-77
2022/03/21 05:31:53;;;;;;;44.33;26.52;;;2.70;94.70;;;;;;5061273;28;20123;-75
2022/03/21 05:37:03;;;;;;;42.40;27.13;;;2.70;94.60;;;;;;5051168;28;20067;-75
2022/03/21 05:39:29;;;;;;;42.73;25.47;;;2.70;94.60;;;;;;5033390;28;20053;-75
2022/03/21 05:41:55;;;;;;;44.70;25.87;;;2.60;94.70;;;;;;5032978;28;20040;-75
2022/03/21 05:44:20;;;;;;;39.53;24.30;;;2.70;94.80;;;;;;5049796;28;20470;-76
2022/03/21 05:46:46;;;;;;;42.63;25.03;;;2.60;94.80;;;;;;5036891;28;20085;-76
2022/03/21 05:49:12;;;;;;;43.90;26.47;;;2.60;94.80;;;;;;5043033;28;20045;-75
2022/03/21 05:51:42;;;;;;;43.50;26.47;;;2.60;94.90;;;;;;5044721;28;20083;-75
2022/03/21 05:54:10;;;;;;;48.53;26.60;;;2.60;95.00;;;;;;5025321;28;20083;-75
2022/03/21 05:56:37;;;;;;;41.67;26.33;;;2.60;95.10;;;;;;5039248;28;20061;-75
2022/03/21 06:01:49;;;;;;;43.57;26.00;;;2.60;95.20;;;;;;5035532;28;20037;-76
2022/03/21 06:04:15;;;;;;;45.13;25.73;;;2.60;95.30;;;;;;5037784;28;20018;-75
2022/03/21 06:06:41;;;;;;;42.27;25.17;;;2.60;95.40;;;;;;5049620;28;20043;-75
2022/03/21 06:09:07;;;;;;;41.07;25.10;;;2.60;95.50;;;;;;5041114;28;20049;-75
2022/03/21 06:11:34;;;;;;;40.40;24.90;;;2.60;95.50;;;;;;5046710;28;20040;-75
2022/03/21 06:14:00;;;;;;;37.27;21.67;;;2.70;95.70;;;;;;5044018;28;20100;-77
2022/03/21 06:16:26;;;;;;;39.50;22.23;;;2.70;95.70;;;;;;5046132;28;20038;-75
2022/03/21 06:18:51;;;;;;;35.10;20.67;;;2.70;95.70;;;;;;5022611;28;20474;-76
2022/03/21 06:21:17;;;;;;;33.90;20.07;;;2.70;95.70;;;;;;5043330;28;20044;-76
2022/03/21 06:23:43;;;;;;;33.77;20.70;;;2.80;95.80;;;;;;5055042;28;20453;-76
2022/03/21 06:26:09;;;;;;;30.23;18.60;;;2.80;95.80;;;;;;5043608;28;20057;-76
2022/03/21 06:28:35;;;;;;;29.33;19.30;;;2.80;95.80;;;;;;5004090;28;20072;-76
2022/03/21 06:31:01;;;;;;;31.03;19.43;;;2.90;95.80;;;;;;5055187;28;20147;-76
2022/03/21 06:33:29;;;;;;;32.27;19.87;;;2.90;95.80;;;;;;5056265;28;20025;-77
2022/03/21 06:35:57;;;;;;;32.40;20.03;;;2.90;95.80;;;;;;5038330;28;20033;-76
2022/03/21 06:38:23;;;;;;;28.67;18.87;;;2.90;95.80;;;;;;5055010;28;20124;-77
2022/03/21 06:40:50;;;;;;;31.10;19.70;;;3.00;95.90;;;;;;5055290;28;20037;-77
2022/03/21 06:43:16;;;;;;;31.07;19.67;;;3.00;96.00;;;;;;5056300;28;20051;-77
2022/03/21 06:45:43;;;;;;;33.60;21.50;;;3.10;96.10;;;;;;5054745;28;20025;-77
2022/03/21 06:48:09;;;;;;;33.70;20.83;;;3.10;96.20;;;;;;5054613;28;20021;-77
2022/03/21 06:50:35;;;;;;;33.10;21.93;;;3.10;96.30;;;;;;5056250;28;20082;-77
2022/03/21 06:53:01;;;;;;;34.87;20.87;;;3.20;96.40;;;;;;5055091;28;20033;-76
2022/03/21 06:55:27;;;;;;;36.70;22.57;;;3.30;96.50;;;;;;5040646;28;20030;-76
2022/03/21 06:57:53;;;;;;;34.00;22.37;;;3.40;96.60;;;;;;5034623;28;20056;-77
2022/03/21 07:00:19;;;;;;;37.07;22.40;;;3.40;96.70;;;;;;5017671;28;20504;-77
2022/03/21 07:02:45;;;;;;;36.57;22.20;;;3.50;96.80;;;;;;5035769;28;20466;-77
2022/03/21 07:05:11;;;;;;;36.17;22.30;;;3.60;96.90;;;;;;5036401;28;20033;-77
2022/03/21 07:07:37;;;;;;;35.33;22.20;;;3.60;96.90;;;;;;5035874;28;20391;-77
2022/03/21 07:10:06;;;;;;;40.93;24.63;;;3.70;97.00;;;;;;5035650;28;20041;-77
2022/03/21 07:12:34;;;;;;;38.43;23.13;;;3.80;97.10;;;;;;5034655;28;20057;-77
2022/03/21 07:15:03;;;;;;;40.97;24.07;;;3.90;97.20;;;;;;5035564;28;20057;-78
2022/03/21 07:17:29;;;;;;;40.37;23.30;;;3.90;97.30;;;;;;5035169;28;20034;-77
2022/03/21 07:19:55;;;;;;;36.80;23.70;;;4.00;97.30;;;;;;5041945;28;20156;-77
2022/03/21 07:22:20;;;;;;;38.07;23.27;;;4.10;97.40;;;;;;5040547;28;20033;-78
2022/03/21 07:24:46;;;;;;;40.00;24.43;;;4.20;97.50;;;;;;5050610;28;20025;-78
2022/03/21 07:27:14;;;;;;;41.43;24.53;;;4.30;97.50;;;;;;5049518;28;20053;-77
2022/03/21 07:29:40;;;;;;;39.70;24.77;;;4.40;97.60;;;;;;5033605;28;20069;-77
2022/03/21 07:32:07;;;;;;;43.30;27.40;;;4.50;97.70;;;;;;5035225;28;20486;-78
2022/03/21 07:34:32;;;;;;;39.53;26.20;;;4.60;97.80;;;;;;5044227;28;20381;-78
2022/03/21 07:36:58;;;;;;;39.50;26.37;;;4.60;97.80;;;;;;5053674;28;20025;-78
2022/03/21 07:39:24;;;;;;;42.00;26.37;;;4.70;97.90;;;;;;5053979;28;20074;-77
2022/03/21 07:41:51;;;;;;;47.73;28.67;;;4.80;97.90;;;;;;5037033;28;20037;-78
2022/03/21 07:47:17;;;;;;;41.30;25.83;;;4.80;98.00;;;;;;5055182;28;20037;-78
2022/03/21 07:47:20;;;;;;;45.40;27.93;;;4.90;98.10;;;;;;5054864;28;20040;-78
2022/03/21 07:49:50;;;;;;;41.57;26.07;;;5.10;98.10;;;;;;5054863;28;20064;-78
2022/03/21 07:52:18;;;;;;;41.23;27.60;;;5.20;98.20;;;;;;5054795;28;20447;-76
2022/03/21 07:54:48;;;;;;;43.10;27.40;;;5.20;98.20;;;;;;5053167;28;20105;-76
2022/03/21 07:57:13;;;;;;;43.20;26.70;;;5.30;98.30;;;;;;5052933;28;20403;-77
2022/03/21 07:59:39;;;;;;;39.70;26.47;;;5.40;98.30;;;;;;5054816;28;20029;-76
2022/03/21 08:02:05;;;;;;;43.97;27.23;;;5.50;98.40;;;;;;5053483;28;20046;-76
2022/03/21 08:04:32;;;;;;;41.77;26.80;;;5.60;98.40;;;;;;5036902;28;20120;-76
2022/03/21 08:06:59;;;;;;;46.23;27.83;;;5.70;98.50;;;;;;5036818;28;20045;-76
2022/03/21 08:09:27;;;;;;;46.13;27.37;;;5.70;98.50;;;;;;5036786;28;20063;-76
2022/03/21 08:11:54;;;;;;;44.47;27.50;;;5.90;98.50;;;;;;5053746;28;20029;-76
2022/03/21 08:14:20;;;;;;;44.73;27.43;;;6.00;98.80;;;;;;5047306;28;20067;-76
2022/03/21 08:16:46;;;;;;;43.90;26.07;;;6.00;98.50;;;;;;5035702;28;20038;-76
2022/03/21 08:19:11;;;;;;;43.33;26.10;;;6.20;98.50;;;;;;5034876;28;20107;-76
2022/03/21 08:21:37;;;;;;;47.37;27.17;;;6.20;98.50;;;;;;5033120;28;20461;-76
2022/03/21 08:24:03;;;;;;;38.20;24.07;;;6.50;98.50;;;;;;5033412;28;20033;-76
2022/03/21 08:26:29;;;;;;;37.67;23.40;;;6.50;98.50;;;;;;5031830;28;20037;-76
2022/03/21 08:28:54;;;;;;;37.43;23.97;;;6.60;98.50;;;;;;5023375;28;20051;-76
2022/03/21 08:31:20;;;;;;;36.40;23.40;;;6.70;98.40;;;;;;5052992;28;20350;-77
2022/03/21 08:33:51;;;;;;;36.50;21.77;;;6.80;98.30;;;;;;5084123;27;1394045;-75
2022/03/21 08:36:16;;;;;;;31.33;20.23;;;6.90;98.20;;;;;;5093078;28;20040;-76
2022/03/21 08:38:42;;;;;;;33.60;20.90;;;7.00;98.10;;;;;;5075965;28;20032;-76
2022/03/21 08:41:08;;;;;;;29.77;18.87;;;7.10;97.90;;;;;;5075804;28;20035;-76
2022/03/21 08:43:33;;;;;;;32.33;18.73;;;7.30;97.90;;;;;;5111187;28;20483;-76
2022/03/21 08:45:59;;;;;;;29.37;17.67;;;7.30;97.60;;;;;;5076131;28;20028;-76
2022/03/21 08:49:23;;;;;;;27.80;17.07;;;7.50;97.50;;;;;;5092636;28;20032;-76
2022/03/21 08:51:10;;;;;;;30.10;17.43;;;7.60;97.20;;;;;;5095495;28;20036;-77
2022/03/21 08:53:36;;;;;;;29.90;16.27;;;7.70;96.80;;;;;;5093050;28;20039;-78
2022/03/21 08:56:02;;;;;;;26.43;15.67;;;7.80;96.60;;;;;;5076033;28;20426;-77
2022/03/21 08:58:28;;;;;;;27.70;16.10;;;7.90;96.30;;;;;;5092038;28;20035;-78
2022/03/21 09:00:53;;;;;;;30.23;17.20;;;8.10;96.10;;;;;;5110550;28;20464;-76
2022/03/21 09:03:20;;;;;;;28.93;16.87;;;8.10;95.80;;;;;;5110288;28;20082;-75
2022/03/21 09:05:46;;;;;;;30.07;17.10;;;8.30;95.60;;;;;;5110472;28;20100;-75
2022/03/21 09:08:12;;;;;;;27.77;15.40;;;8.40;95.30;;;;;;5058925;28;20479;-75
2022/03/21 09:10:38;;;;;;;28.70;16.20;;;8.50;95.10;;;;;;5091854;28;20118;-76
2022/03/21 09:13:05;;;;;;;25.33;16.67;;;8.60;94.80;;;;;;5091967;28;20032;-76
2022/03/21 09:15:31;;;;;;;25.97;15.73;;;8.80;94.60;;;;;;5075330;28;20063;-75
2022/03/21 09:17:57;;;;;;;24.07;15.33;;;8.80;94.30;;;;;;5092218;28;20051;-76
2022/03/21 09:20:23;;;;;;;25.87;14.77;;;9.00;94.10;;;;;;5075369;28;20032;-76
2022/03/21 09:22:48;;;;;;;25.97;16.67;;;9.10;93.80;;;;;;5110244;28;20040;-77
2022/03/21 09:25:17;;;;;;;23.03;15.23;;;9.10;93.00;;;;;;5092039;28;20039;-76
2022/03/21 09:27:42;;;;;;;27.47;14.87;;;9.30;92.90;;;;;;5110004;28;20129;-77
2022/03/21 09:30:10;;;;;;;25.53;15.07;;;9.40;92.90;;;;;;5091694;28;20126;-77
2022/03/21 09:32:36;;;;;;;29.40;15.10;;;9.50;92.30;;;;;;5091076;28;20048;-77
2022/03/21 09:35:01;;;;;;;23.47;14.57;;;9.70;92.10;;;;;;5071083;28;20032;-77
2022/03/21 09:37:27;;;;;;;26.43;15.10;;;9.80;91.90;;;;;;5089263;28;20099;-77
2022/03/21 09:39:53;;;;;;;25.47;14.83;;;9.90;91.70;;;;;;5070964;28;20039;-77
2022/03/21 09:42:19;;;;;;;24.65;15.45;;;10.00;91.40;;;;;;5071351;28;20457;-77
2022/03/21 09:44:50;;;;;;;26.80;15.43;;;10.10;91.10;;;;;;5085132;28;20052;-77
2022/03/21 09:50:00;;;;;;;22.42;14.80;;;10.40;90.50;;;;;;5096269;28;20055;-77
2022/03/21 09:52:26;;;;;;;21.17;14.63;;;10.50;90.60;;;;;;5096084;28;20473;-77
2022/03/21 09:54:53;;;;;;;22.83;14.50;;;10.50;90.10;;;;;;5061049;28;20111;-77
2022/03/21 09:57:19;;;;;;;26.95;15.93;;;10.60;90.00;;;;;;5095724;28;20024;-77
2022/03/21 09:59:45;;;;;;;23.35;14.52;;;10.60;89.60;;;;;;5078178;28;20093;-77
2022/03/21 10:02:17;;;;;;;24.67;15.50;;;10.70;89.30;;;;;;5095748;28;20031;-77
2022/03/21 10:04:43;;;;;;;23.05;14.95;;;10.80;88.90;;;;;;5077427;28;20027;-76
2022/03/21 10:07:11;;;;;;;22.35;15.48;;;10.80;88.30;;;;;;5060976;28;20039;-76
2022/03/21 10:09:36;;;;;;;23.45;14.00;;;10.90;87.80;;;;;;5095861;28;20040;-76
2022/03/21 10:12:08;;;;;;;25.05;14.88;;;11.10;87.50;;;;;;5077690;28;20415;-76
2022/03/21 10:14:36;;;;;;;24.52;14.90;;;11.20;87.10;;;;;;5095718;28;20032;-76
2022/03/21 10:17:10;;;;;;;25.88;15.63;;;11.50;86.80;;;;;;5077428;28;20103;-76
2022/03/21 10:19:51;;;;;;;25.67;16.30;;;11.60;86.20;;;;;;5077514;28;20020;-76
2022/03/21 10:22:21;;;;;;;22.80;13.80;;;11.90;85.50;;;;;;5077471;28;20020;-76
2022/03/21 10:24:49;;;;;;;20.58;14.25;;;12.10;84.80;;;;;;5095525;28;20028;-78
2022/03/21 10:27:31;;;;;;;20.42;13.20;;;12.30;83.70;;;;;;5095199;28;20124;-78
2022/03/21 10:30:09;;;;;;;27.73;14.63;;;12.60;82.10;;;;;;5077025;28;20020;-79
2022/03/21 10:32:55;;;;;;;21.58;14.05;;;12.90;81.40;;;;;;5076610;28;20044;-77
2022/03/21 10:35:26;;;;;;;21.35;12.93;;;13.30;79.60;;;;;;5095352;28;20024;-76
2022/03/21 10:37:53;;;;;;;20.48;14.13;;;13.50;78.90;;;;;;5077140;28;20506;-76
2022/03/21 10:40:42;;;;;;;24.58;13.50;;;13.80;77.90;;;;;;5076791;28;20024;-76
2022/03/21 10:43:10;;;;;;;23.50;13.15;;;14.10;76.10;;;;;;5063642;28;20054;-76
2022/03/21 10:45:38;;;;;;;21.88;12.60;;;14.30;75.80;;;;;;5077051;28;20111;-77
2022/03/21 10:48:05;;;;;;;18.42;12.32;;;14.50;75.00;;;;;;5095129;28;20344;-77
2022/03/21 10:50:42;;;;;;;20.48;13.45;;;14.70;74.30;;;;;;5077235;28;20556;-77
2022/03/21 10:53:13;;;;;;;21.58;12.65;;;15.00;73.40;;;;;;5094940;28;20545;-76
2022/03/21 10:55:41;;;;;;;18.10;12.80;;;15.30;72.30;;;;;;5093863;28;20027;-77
2022/03/21 10:58:08;;;;;;;22.63;12.88;;;15.60;71.10;;;;;;5094801;28;20020;-77
2022/03/21 11:00:34;;;;;;;24.65;13.60;;;15.90;70.00;;;;;;5076686;28;20032;-77
2022/03/21 11:03:09;;;;;;;20.63;12.40;;;16.20;68.50;;;;;;5095075;28;20371;-77
2022/03/21 11:05:39;;;;;;;20.38;13.57;;;16.50;66.90;;;;;;5076533;28;20551;-77
2022/03/21 11:08:10;;;;;;;18.30;12.38;;;16.70;66.00;;;;;;5060286;28;20028;-77
2022/03/21 11:10:37;;;;;;;19.23;12.75;;;17.00;65.20;;;;;;5076621;28;20028;-77
2022/03/21 11:13:04;;;;;;;17.90;11.88;;;17.20;64.40;;;;;;5059747;28;20024;-76
2022/03/21 11:15:32;;;;;;;19.65;11.65;;;17.40;63.70;;;;;;5076803;28;20028;-76
2022/03/21 11:17:58;;;;;;;17.65;11.85;;;17.60;63.80;;;;;;5094465;28;20028;-76
2022/03/21 11:20:25;;;;;;;17.67;11.70;;;17.90;62.30;;;;;;5060018;28;20031;-75
2022/03/21 11:22:53;;;;;;;16.38;10.35;;;18.10;61.40;;;;;;5094421;28;20028;-76
2022/03/21 11:25:21;;;;;;;19.17;12.88;;;18.30;60.60;;;;;;5094697;28;20035;-76
2022/03/21 11:28:05;;;;;;;17.90;13.20;;;18.60;59.60;;;;;;5094284;28;20387;-76
2022/03/21 11:30:49;;;;;;;;;;;18.90;58.00;;;;;;5094890;28;20028;-76
2022/03/21 11:33:40;;;;;;;14.45;10.32;;;19.10;58.60;;;;;;5075898;28;19926;-76
2022/03/21 11:36:09;;;;;;;20.50;11.20;;;19.40;59.00;;;;;;5076168;28;20016;-76
2022/03/21 11:39:02;;;;;;;17.45;11.23;;;19.60;58.20;;;;;;5076043;28;20028;-75
2022/03/21 11:41:31;;;;;;;16.98;12.25;;;19.90;56.50;;;;;;5093885;28;20048;-76
2022/03/21 11:44:06;;;;;;;18.55;12.38;;;20.00;56.70;;;;;;5059651;28;20113;-75
2022/03/21 11:46:35;;;;;;;15.50;11.05;;;20.40;55.30;;;;;;5075729;28;20024;-76
2022/03/21 11:49:04;;;;;;;17.10;11.20;;;20.70;55.00;;;;;;5094054;28;20017;-75
2022/03/21 11:51:40;;;;;;;15.30;10.93;;;20.90;54.10;;;;;;5094051;28;20020;-76
2022/03/21 11:54:29;;;;;;;16.40;10.63;;;21.30;52.70;;;;;;5075524;28;20105;-75
2022/03/21 11:56:57;;;;;;;16.50;10.98;;;21.50;51.50;;;;;;5075660;28;20031;-75
2022/03/21 11:59:32;;;;;;;20.10;11.75;;;21.60;51.70;;;;;;5076359;28;20111;-76
2022/03/21 12:01:59;;;;;;;15.32;10.05;;;21.80;50.80;;;;;;5075852;28;20388;-75
2022/03/21 12:04:24;;;;;;;14.57;10.40;;;22.00;50.40;;;;;;5059055;28;20024;-75
2022/03/21 12:06:51;;;;;;;18.88;11.15;;;22.20;49.90;;;;;;5075366;28;20039;-75
2022/03/21 12:09:16;;;;;;;14.48;10.95;;;22.40;49.30;;;;;;5042490;28;20025;-75
2022/03/21 12:11:46;;;;;;;15.35;10.52;;;22.60;48.90;;;;;;5093834;28;20043;-75
2022/03/21 12:14:44;;;;;;;16.33;10.82;;;22.80;48.60;;;;;;5094049;28;20099;-75
2022/03/21 12:17:10;;;;;;;19.70;11.13;;;23.10;47.60;;;;;;5075399;28;20027;-76
2022/03/21 12:19:47;;;;;;;14.50;10.05;;;23.30;48.00;;;;;;5093561;28;20028;-76
2022/03/21 12:22:37;;;;;;;16.80;10.23;;;23.50;46.60;;;;;;5075488;28;20432;-75
2022/03/21 12:25:06;;;;;;;15.48;11.40;;;23.70;46.10;;;;;;5075723;28;20109;-76
2022/03/21 12:27:36;;;;;;;14.60;10.95;;;23.90;46.10;;;;;;5093477;28;20062;-77
2022/03/21 12:30:20;;;;;;;15.82;10.73;;;24.10;45.60;;;;;;5093330;28;20089;-78
2022/03/21 12:33:09;;;;;;;15.48;10.98;;;24.30;44.70;;;;;;5093102;28;20130;-78
2022/03/21 12:35:42;;;;;;;16.13;10.57;;;24.50;44.40;;;;;;5060137;28;20028;-77
2022/03/21 12:38:32;;;;;;;;;;;24.60;44.20;;;;;;5093909;28;20016;-77
2022/03/21 12:41:00;;;;;;;14.80;10.07;;;24.80;44.20;;;;;;5093601;28;19911;-77
2022/03/21 12:43:44;;;;;;;15.07;11.27;;;25.00;44.20;;;;;;5075303;28;20027;-77
2022/03/21 12:46:16;;;;;;;15.18;10.40;;;25.20;43.10;;;;;;5093914;28;20024;-77
2022/03/21 12:49:03;;;;;;;15.07;10.73;;;25.30;43.20;;;;;;5093409;28;20036;-77
2022/03/21 12:51:32;;;;;;;16.73;11.00;;;25.50;42.50;;;;;;5058334;28;20028;-77
2022/03/21 12:54:00;;;;;;;20.65;11.75;;;25.70;42.60;;;;;;5074959;28;20016;-77
2022/03/21 12:56:26;;;;;;;16.10;11.05;;;25.80;42.10;;;;;;5075456;28;20036;-77
2022/03/21 12:58:58;;;;;;;15.45;10.20;;;26.00;41.90;;;;;;5093388;28;20393;-78
2022/03/21 13:01:24;;;;;;;17.35;11.25;;;26.20;41.40;;;;;;5075153;28;20472;-76
2022/03/21 13:12:26;;;;;;;15.68;11.25;;;26.90;40.90;;;;;;5063991;28;20074;-76